sensor_id;sensor_type;location;lat;lon;timestamp;temperature;humidity
9810;DHT22;4944;52.514;13.192;2022-12-08T00:01:32;1.10;99.90
9810;DHT22;4944;52.514;13.192;2022-12-08T00:04:00;1.20;99.90
9810;DHT22;4944;52.514;13.192;2022-12-08T00:06:29;1.20;99.90
9810;DHT22;4944;52.514;13.192;2022-12-08T00:09:18;1.20;99.90
9810;DHT22;4944;52.514;13.192;2022-12-08T00:11:49;1.30;99.90
9810;DHT22;4944;52.514;13.192;2022-12-08T00:14:16;1.30;99.90
9810;DHT22;4944;52.514;13.192;2022-12-08T00:16:43;1.40;99.90
9810;DHT22;4944;52.514;13.192;2022-12-08T00:19:10;1.50;99.90
9810;DHT22;4944;52.514;13.192;2022-12-08T00:21:37;1.40;99.90
9810;DHT22;4944;52.514;13.192;2022-12-08T00:24:04;1.40;99.90
9810;DHT22;4944;52.514;13.192;2022-12-08T00:26:33;1.40;99.90
9810;DHT22;4944;52.514;13.192;2022-12-08T00:29:00;1.30;99.90
9810;DHT22;4944;52.514;13.192;2022-12-08T00:31:26;1.30;99.90
9810;DHT22;4944;52.514;13.192;2022-12-08T00:33:53;1.30;99.90
9810;DHT22;4944;52.514;13.192;2022-12-08T00:36:20;1.30;99.90
9810;DHT22;4944;52.514;13.192;2022-12-08T00:38:47;1.30;99.90
9810;DHT22;4944;52.514;13.192;2022-12-08T00:41:16;1.30;99.90
9810;DHT22;4944;52.514;13.192;2022-12-08T00:43:45;1.30;99.90
9810;DHT22;4944;52.514;13.192;2022-12-08T00:46:11;1.20;99.90
9810;DHT22;4944;52.514;13.192;2022-12-08T00:48:38;1.30;99.90
9810;DHT22;4944;52.514;13.192;2022-12-08T00:51:05;1.30;99.90
9810;DHT22;4944;52.514;13.192;2022-12-08T00:53:32;1.40;99.90
9810;DHT22;4944;52.514;13.192;2022-12-08T00:55:59;1.40;99.90
9810;DHT22;4944;52.514;13.192;2022-12-08T00:58:26;1.40;99.90
9810;DHT22;4944;52.514;13.192;2022-12-08T01:00:54;1.50;99.90
9810;DHT22;4944;52.514;13.192;2022-12-08T01:03:21;1.60;99.90
9810;DHT22;4944;52.514;13.192;2022-12-08T01:05:48;1.60;99.90
9810;DHT22;4944;52.514;13.192;2022-12-08T01:08:15;1.60;99.90
9810;DHT22;4944;52.514;13.192;2022-12-08T01:10:41;1.60;99.90
9810;DHT22;4944;52.514;13.192;2022-12-08T01:13:08;1.70;99.90
9810;DHT22;4944;52.514;13.192;2022-12-08T01:15:36;1.70;99.90
9810;DHT22;4944;52.514;13.192;2022-12-08T01:18:04;1.70;99.90
9810;DHT22;4944;52.514;13.192;2022-12-08T01:20:31;1.70;99.90
9810;DHT22;4944;52.514;13.192;2022-12-08T01:22:58;1.70;99.90
9810;DHT22;4944;52.514;13.192;2022-12-08T01:25:25;1.70;99.90
9810;DHT22;4944;52.514;13.192;2022-12-08T01:27:52;1.70;99.90
9810;DHT22;4944;52.514;13.192;2022-12-08T01:30:19;1.70;99.90
9810;DHT22;4944;52.514;13.192;2022-12-08T01:32:46;1.80;99.90
9810;DHT22;4944;52.514;13.192;2022-12-08T01:35:15;1.80;99.90
9810;DHT22;4944;52.514;13.192;2022-12-08T01:37:42;1.80;99.90
9810;DHT22;4944;52.514;13.192;2022-12-08T01:40:09;1.80;99.90
9810;DHT22;4944;52.514;13.192;2022-12-08T01:42:36;1.90;99.90
9810;DHT22;4944;52.514;13.192;2022-12-08T01:45:05;1.90;99.90
9810;DHT22;4944;52.514;13.192;2022-12-08T01:47:44;1.90;99.90
9810;DHT22;4944;52.514;13.192;2022-12-08T01:50:16;1.90;99.90
9810;DHT22;4944;52.514;13.192;2022-12-08T01:52:46;1.90;99.90
9810;DHT22;4944;52.514;13.192;2022-12-08T01:55:17;1.90;99.90
9810;DHT22;4944;52.514;13.192;2022-12-08T01:57:47;1.90;99.90
9810;DHT22;4944;52.514;13.192;2022-12-08T02:00:17;1.80;99.90
9810;DHT22;4944;52.514;13.192;2022-12-08T02:02:51;1.80;99.90
9810;DHT22;4944;52.514;13.192;2022-12-08T02:05:21;1.80;99.90
9810;DHT22;4944;52.514;13.192;2022-12-08T02:07:48;1.90;99.90
9810;DHT22;4944;52.514;13.192;2022-12-08T02:10:18;1.90;99.90
9810;DHT22;4944;52.514;13.192;2022-12-08T02:12:46;1.90;99.90
9810;DHT22;4944;52.514;13.192;2022-12-08T02:15:13;1.90;99.90
9810;DHT22;4944;52.514;13.192;2022-12-08T02:17:49;1.90;99.90
9810;DHT22;4944;52.514;13.192;2022-12-08T02:20:29;1.90;99.90
9810;DHT22;4944;52.514;13.192;2022-12-08T02:23:02;1.80;99.90
9810;DHT22;4944;52.514;13.192;2022-12-08T02:25:40;1.80;99.90
9810;DHT22;4944;52.514;13.192;2022-12-08T02:31:10;1.80;99.90
9810;DHT22;4944;52.514;13.192;2022-12-08T02:34:10;1.70;99.90
9810;DHT22;4944;52.514;13.192;2022-12-08T02:36:49;1.70;99.90
9810;DHT22;4944;52.514;13.192;2022-12-08T02:39:28;1.70;99.90
9810;DHT22;4944;52.514;13.192;2022-12-08T02:42:01;1.80;99.90
9810;DHT22;4944;52.514;13.192;2022-12-08T02:44:34;1.80;99.90
9810;DHT22;4944;52.514;13.192;2022-12-08T02:47:05;1.80;99.90
9810;DHT22;4944;52.514;13.192;2022-12-08T02:49:35;1.80;99.90
9810;DHT22;4944;52.514;13.192;2022-12-08T02:52:07;1.80;99.90
9810;DHT22;4944;52.514;13.192;2022-12-08T02:54:56;1.80;99.90
9810;DHT22;4944;52.514;13.192;2022-12-08T02:57:32;1.70;99.90
9810;DHT22;4944;52.514;13.192;2022-12-08T03:00:06;1.70;99.90
9810;DHT22;4944;52.514;13.192;2022-12-08T03:02:51;1.70;99.90
9810;DHT22;4944;52.514;13.192;2022-12-08T03:05:33;1.70;99.90
9810;DHT22;4944;52.514;13.192;2022-12-08T03:08:10;1.70;99.90
9810;DHT22;4944;52.514;13.192;2022-12-08T03:10:43;1.70;99.90
9810;DHT22;4944;52.514;13.192;2022-12-08T03:13:13;1.70;99.90
9810;DHT22;4944;52.514;13.192;2022-12-08T03:15:42;1.70;99.90
9810;DHT22;4944;52.514;13.192;2022-12-08T03:18:13;1.70;99.90
9810;DHT22;4944;52.514;13.192;2022-12-08T03:20:44;1.70;99.90
9810;DHT22;4944;52.514;13.192;2022-12-08T03:23:13;1.70;99.90
9810;DHT22;4944;52.514;13.192;2022-12-08T03:25:45;1.70;99.90
9810;DHT22;4944;52.514;13.192;2022-12-08T03:28:14;1.70;99.90
9810;DHT22;4944;52.514;13.192;2022-12-08T03:30:43;1.70;99.90
9810;DHT22;4944;52.514;13.192;2022-12-08T03:33:16;1.70;99.90
9810;DHT22;4944;52.514;13.192;2022-12-08T03:35:46;1.70;99.90
9810;DHT22;4944;52.514;13.192;2022-12-08T03:38:15;1.70;99.90
9810;DHT22;4944;52.514;13.192;2022-12-08T03:40:43;1.70;99.90
9810;DHT22;4944;52.514;13.192;2022-12-08T03:43:30;1.80;99.90
9810;DHT22;4944;52.514;13.192;2022-12-08T03:45:57;1.80;99.90
9810;DHT22;4944;52.514;13.192;2022-12-08T03:48:24;1.90;99.90
9810;DHT22;4944;52.514;13.192;2022-12-08T03:50:52;1.90;99.90
9810;DHT22;4944;52.514;13.192;2022-12-08T03:53:19;1.90;99.90
9810;DHT22;4944;52.514;13.192;2022-12-08T03:55:46;1.90;99.90
9810;DHT22;4944;52.514;13.192;2022-12-08T03:58:12;1.90;99.90
9810;DHT22;4944;52.514;13.192;2022-12-08T04:00:39;1.90;99.90
9810;DHT22;4944;52.514;13.192;2022-12-08T04:03:06;1.90;99.90
9810;DHT22;4944;52.514;13.192;2022-12-08T04:05:33;1.90;99.90
9810;DHT22;4944;52.514;13.192;2022-12-08T04:08:01;1.90;99.90
9810;DHT22;4944;52.514;13.192;2022-12-08T04:10:28;1.90;99.90
9810;DHT22;4944;52.514;13.192;2022-12-08T04:12:55;1.90;99.90
9810;DHT22;4944;52.514;13.192;2022-12-08T04:15:23;1.90;99.90
9810;DHT22;4944;52.514;13.192;2022-12-08T04:17:49;1.80;99.90
9810;DHT22;4944;52.514;13.192;2022-12-08T04:20:17;1.80;99.90
9810;DHT22;4944;52.514;13.192;2022-12-08T04:22:43;1.80;99.90
9810;DHT22;4944;52.514;13.192;2022-12-08T04:25:12;1.80;99.90
9810;DHT22;4944;52.514;13.192;2022-12-08T04:27:38;1.80;99.90
9810;DHT22;4944;52.514;13.192;2022-12-08T04:30:06;1.80;99.90
9810;DHT22;4944;52.514;13.192;2022-12-08T04:32:33;1.80;99.90
9810;DHT22;4944;52.514;13.192;2022-12-08T04:35:00;1.80;99.90
9810;DHT22;4944;52.514;13.192;2022-12-08T04:37:27;1.80;99.90
9810;DHT22;4944;52.514;13.192;2022-12-08T04:39:54;1.70;99.90
9810;DHT22;4944;52.514;13.192;2022-12-08T04:42:22;1.80;99.90
9810;DHT22;4944;52.514;13.192;2022-12-08T04:44:49;1.70;99.90
9810;DHT22;4944;52.514;13.192;2022-12-08T04:47:16;1.70;99.90
9810;DHT22;4944;52.514;13.192;2022-12-08T04:49:43;1.60;99.90
9810;DHT22;4944;52.514;13.192;2022-12-08T04:52:09;1.60;99.90
9810;DHT22;4944;52.514;13.192;2022-12-08T04:54:36;1.60;99.90
9810;DHT22;4944;52.514;13.192;2022-12-08T04:57:03;1.60;99.90
9810;DHT22;4944;52.514;13.192;2022-12-08T04:59:31;1.70;99.90
9810;DHT22;4944;52.514;13.192;2022-12-08T05:01:58;1.70;99.90
9810;DHT22;4944;52.514;13.192;2022-12-08T05:04:25;1.70;99.90
9810;DHT22;4944;52.514;13.192;2022-12-08T05:06:52;1.70;99.90
9810;DHT22;4944;52.514;13.192;2022-12-08T05:09:19;1.80;99.90
9810;DHT22;4944;52.514;13.192;2022-12-08T05:11:46;1.70;99.90
9810;DHT22;4944;52.514;13.192;2022-12-08T05:14:14;1.80;99.90
9810;DHT22;4944;52.514;13.192;2022-12-08T05:16:43;1.80;99.90
9810;DHT22;4944;52.514;13.192;2022-12-08T05:19:11;1.80;99.90
9810;DHT22;4944;52.514;13.192;2022-12-08T05:21:39;1.80;99.90
9810;DHT22;4944;52.514;13.192;2022-12-08T05:24:06;1.80;99.90
9810;DHT22;4944;52.514;13.192;2022-12-08T05:26:33;1.80;99.90
9810;DHT22;4944;52.514;13.192;2022-12-08T05:29:00;1.80;99.90
9810;DHT22;4944;52.514;13.192;2022-12-08T05:31:27;1.80;99.90
9810;DHT22;4944;52.514;13.192;2022-12-08T05:33:55;1.80;99.90
9810;DHT22;4944;52.514;13.192;2022-12-08T05:36:22;1.80;99.90
9810;DHT22;4944;52.514;13.192;2022-12-08T05:38:49;1.80;99.90
9810;DHT22;4944;52.514;13.192;2022-12-08T05:41:18;1.90;99.90
9810;DHT22;4944;52.514;13.192;2022-12-08T05:43:46;1.90;99.90
9810;DHT22;4944;52.514;13.192;2022-12-08T05:46:14;1.90;99.90
9810;DHT22;4944;52.514;13.192;2022-12-08T05:48:41;1.90;99.90
9810;DHT22;4944;52.514;13.192;2022-12-08T05:51:16;1.90;99.90
9810;DHT22;4944;52.514;13.192;2022-12-08T05:53:44;2.00;99.90
9810;DHT22;4944;52.514;13.192;2022-12-08T05:56:11;2.00;99.90
9810;DHT22;4944;52.514;13.192;2022-12-08T05:58:37;2.00;99.90
9810;DHT22;4944;52.514;13.192;2022-12-08T06:01:05;2.00;99.90
9810;DHT22;4944;52.514;13.192;2022-12-08T06:03:32;2.00;99.90
9810;DHT22;4944;52.514;13.192;2022-12-08T06:05:59;2.00;99.90
9810;DHT22;4944;52.514;13.192;2022-12-08T06:08:27;2.10;99.90
9810;DHT22;4944;52.514;13.192;2022-12-08T06:10:54;2.10;99.90
9810;DHT22;4944;52.514;13.192;2022-12-08T06:13:21;2.10;99.90
9810;DHT22;4944;52.514;13.192;2022-12-08T06:15:48;2.20;99.90
9810;DHT22;4944;52.514;13.192;2022-12-08T06:18:15;2.10;99.90
9810;DHT22;4944;52.514;13.192;2022-12-08T06:20:41;2.10;99.90
9810;DHT22;4944;52.514;13.192;2022-12-08T06:23:08;2.20;99.90
9810;DHT22;4944;52.514;13.192;2022-12-08T06:25:37;2.10;99.90
9810;DHT22;4944;52.514;13.192;2022-12-08T06:28:04;2.20;99.90
9810;DHT22;4944;52.514;13.192;2022-12-08T06:30:31;2.20;99.90
9810;DHT22;4944;52.514;13.192;2022-12-08T06:32:58;2.30;99.90
9810;DHT22;4944;52.514;13.192;2022-12-08T06:35:25;2.20;99.90
9810;DHT22;4944;52.514;13.192;2022-12-08T06:37:52;2.20;99.90
9810;DHT22;4944;52.514;13.192;2022-12-08T06:40:19;2.20;99.90
9810;DHT22;4944;52.514;13.192;2022-12-08T06:42:47;2.30;99.90
9810;DHT22;4944;52.514;13.192;2022-12-08T06:45:16;2.30;99.90
9810;DHT22;4944;52.514;13.192;2022-12-08T06:47:43;2.30;99.90
9810;DHT22;4944;52.514;13.192;2022-12-08T06:50:11;2.30;99.90
9810;DHT22;4944;52.514;13.192;2022-12-08T06:52:39;2.20;99.90
9810;DHT22;4944;52.514;13.192;2022-12-08T06:55:08;2.30;99.90
9810;DHT22;4944;52.514;13.192;2022-12-08T06:57:35;2.30;99.90
9810;DHT22;4944;52.514;13.192;2022-12-08T07:00:05;2.30;99.90
9810;DHT22;4944;52.514;13.192;2022-12-08T07:02:32;2.30;99.90
9810;DHT22;4944;52.514;13.192;2022-12-08T07:04:59;2.30;99.90
9810;DHT22;4944;52.514;13.192;2022-12-08T07:07:26;2.30;99.90
9810;DHT22;4944;52.514;13.192;2022-12-08T07:09:53;2.30;99.90
9810;DHT22;4944;52.514;13.192;2022-12-08T07:12:20;2.30;99.90
9810;DHT22;4944;52.514;13.192;2022-12-08T07:14:47;2.30;99.90
9810;DHT22;4944;52.514;13.192;2022-12-08T07:17:15;2.30;99.90
9810;DHT22;4944;52.514;13.192;2022-12-08T07:19:45;2.30;99.90
9810;DHT22;4944;52.514;13.192;2022-12-08T07:22:12;2.30;99.90
9810;DHT22;4944;52.514;13.192;2022-12-08T07:24:39;2.40;99.90
9810;DHT22;4944;52.514;13.192;2022-12-08T07:27:06;2.40;99.90
9810;DHT22;4944;52.514;13.192;2022-12-08T07:29:33;2.40;99.90
9810;DHT22;4944;52.514;13.192;2022-12-08T07:32:00;2.40;99.90
9810;DHT22;4944;52.514;13.192;2022-12-08T07:34:28;2.40;99.90
9810;DHT22;4944;52.514;13.192;2022-12-08T07:36:55;2.40;99.90
9810;DHT22;4944;52.514;13.192;2022-12-08T07:39:21;2.40;99.90
9810;DHT22;4944;52.514;13.192;2022-12-08T07:41:48;2.40;99.90
9810;DHT22;4944;52.514;13.192;2022-12-08T07:44:15;2.40;99.90
9810;DHT22;4944;52.514;13.192;2022-12-08T07:46:42;2.50;99.90
9810;DHT22;4944;52.514;13.192;2022-12-08T07:49:09;2.50;99.90
9810;DHT22;4944;52.514;13.192;2022-12-08T07:51:37;2.50;99.90
9810;DHT22;4944;52.514;13.192;2022-12-08T07:54:04;2.60;99.90
9810;DHT22;4944;52.514;13.192;2022-12-08T07:56:31;2.50;99.90
9810;DHT22;4944;52.514;13.192;2022-12-08T07:59:00;2.50;99.90
9810;DHT22;4944;52.514;13.192;2022-12-08T08:01:29;2.50;99.90
9810;DHT22;4944;52.514;13.192;2022-12-08T08:03:58;2.50;99.90
9810;DHT22;4944;52.514;13.192;2022-12-08T08:06:26;2.50;99.90
9810;DHT22;4944;52.514;13.192;2022-12-08T08:08:55;2.50;99.90
9810;DHT22;4944;52.514;13.192;2022-12-08T08:11:22;2.60;99.90
9810;DHT22;4944;52.514;13.192;2022-12-08T08:13:49;2.60;99.90
9810;DHT22;4944;52.514;13.192;2022-12-08T08:16:17;2.60;99.90
9810;DHT22;4944;52.514;13.192;2022-12-08T08:18:46;2.60;99.90
9810;DHT22;4944;52.514;13.192;2022-12-08T08:21:13;2.60;99.90
9810;DHT22;4944;52.514;13.192;2022-12-08T08:23:40;2.60;99.90
9810;DHT22;4944;52.514;13.192;2022-12-08T08:26:08;2.60;99.90
9810;DHT22;4944;52.514;13.192;2022-12-08T08:28:35;2.60;99.90
9810;DHT22;4944;52.514;13.192;2022-12-08T08:31:02;2.70;99.90
9810;DHT22;4944;52.514;13.192;2022-12-08T08:33:31;2.70;99.90
9810;DHT22;4944;52.514;13.192;2022-12-08T08:35:57;2.70;99.90
9810;DHT22;4944;52.514;13.192;2022-12-08T08:38:24;2.80;99.90
9810;DHT22;4944;52.514;13.192;2022-12-08T08:40:52;2.80;99.90
9810;DHT22;4944;52.514;13.192;2022-12-08T08:43:20;2.80;99.90
9810;DHT22;4944;52.514;13.192;2022-12-08T08:45:56;2.80;99.90
9810;DHT22;4944;52.514;13.192;2022-12-08T08:48:24;2.80;99.90
9810;DHT22;4944;52.514;13.192;2022-12-08T08:50:51;2.80;99.90
9810;DHT22;4944;52.514;13.192;2022-12-08T08:53:18;2.80;99.90
9810;DHT22;4944;52.514;13.192;2022-12-08T08:55:46;2.80;99.90
9810;DHT22;4944;52.514;13.192;2022-12-08T08:58:13;2.90;99.90
9810;DHT22;4944;52.514;13.192;2022-12-08T09:00:42;2.90;99.90
9810;DHT22;4944;52.514;13.192;2022-12-08T09:03:09;2.90;99.90
9810;DHT22;4944;52.514;13.192;2022-12-08T09:05:37;2.90;99.90
9810;DHT22;4944;52.514;13.192;2022-12-08T09:08:04;2.90;99.90
9810;DHT22;4944;52.514;13.192;2022-12-08T09:10:31;2.90;99.90
9810;DHT22;4944;52.514;13.192;2022-12-08T09:12:58;3.00;99.90
9810;DHT22;4944;52.514;13.192;2022-12-08T09:15:24;3.00;99.90
9810;DHT22;4944;52.514;13.192;2022-12-08T09:17:53;3.00;99.90
9810;DHT22;4944;52.514;13.192;2022-12-08T09:20:20;3.00;99.90
9810;DHT22;4944;52.514;13.192;2022-12-08T09:22:46;3.00;99.90
9810;DHT22;4944;52.514;13.192;2022-12-08T09:25:13;3.00;99.90
9810;DHT22;4944;52.514;13.192;2022-12-08T09:27:40;3.00;99.90
9810;DHT22;4944;52.514;13.192;2022-12-08T09:30:08;3.00;99.90
9810;DHT22;4944;52.514;13.192;2022-12-08T09:32:35;3.00;99.90
9810;DHT22;4944;52.514;13.192;2022-12-08T09:35:03;3.00;99.90
9810;DHT22;4944;52.514;13.192;2022-12-08T09:37:30;3.10;99.90
9810;DHT22;4944;52.514;13.192;2022-12-08T09:39:57;3.10;99.90
9810;DHT22;4944;52.514;13.192;2022-12-08T09:42:37;3.10;99.90
9810;DHT22;4944;52.514;13.192;2022-12-08T09:45:09;3.10;99.90
9810;DHT22;4944;52.514;13.192;2022-12-08T09:47:39;3.20;99.90
9810;DHT22;4944;52.514;13.192;2022-12-08T09:50:14;3.20;99.90
9810;DHT22;4944;52.514;13.192;2022-12-08T09:52:57;3.20;99.90
9810;DHT22;4944;52.514;13.192;2022-12-08T09:55:36;3.20;99.90
9810;DHT22;4944;52.514;13.192;2022-12-08T09:58:08;3.20;99.90
9810;DHT22;4944;52.514;13.192;2022-12-08T10:00:36;3.30;99.90
9810;DHT22;4944;52.514;13.192;2022-12-08T10:03:05;3.30;99.90
9810;DHT22;4944;52.514;13.192;2022-12-08T10:05:38;3.20;99.90
9810;DHT22;4944;52.514;13.192;2022-12-08T10:08:12;3.30;99.90
9810;DHT22;4944;52.514;13.192;2022-12-08T10:10:45;3.30;99.90
9810;DHT22;4944;52.514;13.192;2022-12-08T10:13:21;3.30;99.90
9810;DHT22;4944;52.514;13.192;2022-12-08T10:15:58;3.30;99.90
9810;DHT22;4944;52.514;13.192;2022-12-08T10:18:28;3.30;99.90
9810;DHT22;4944;52.514;13.192;2022-12-08T10:21:07;3.30;99.90
9810;DHT22;4944;52.514;13.192;2022-12-08T10:23:38;3.40;99.90
9810;DHT22;4944;52.514;13.192;2022-12-08T10:26:11;3.40;99.90
9810;DHT22;4944;52.514;13.192;2022-12-08T10:28:38;3.40;99.90
9810;DHT22;4944;52.514;13.192;2022-12-08T10:31:05;3.40;99.90
9810;DHT22;4944;52.514;13.192;2022-12-08T10:33:32;3.40;99.90
9810;DHT22;4944;52.514;13.192;2022-12-08T10:36:00;3.50;99.90
9810;DHT22;4944;52.514;13.192;2022-12-08T10:38:30;3.50;99.90
9810;DHT22;4944;52.514;13.192;2022-12-08T10:41:02;3.50;99.90
9810;DHT22;4944;52.514;13.192;2022-12-08T10:43:30;3.50;99.90
9810;DHT22;4944;52.514;13.192;2022-12-08T10:46:08;3.50;99.90
9810;DHT22;4944;52.514;13.192;2022-12-08T10:48:35;3.50;99.90
9810;DHT22;4944;52.514;13.192;2022-12-08T10:51:04;3.50;99.90
9810;DHT22;4944;52.514;13.192;2022-12-08T10:53:32;3.50;99.90
9810;DHT22;4944;52.514;13.192;2022-12-08T10:56:10;3.50;99.90
9810;DHT22;4944;52.514;13.192;2022-12-08T10:58:41;3.50;99.90
9810;DHT22;4944;52.514;13.192;2022-12-08T11:01:12;3.50;99.90
9810;DHT22;4944;52.514;13.192;2022-12-08T11:03:44;3.50;99.90
9810;DHT22;4944;52.514;13.192;2022-12-08T11:06:15;3.40;99.90
9810;DHT22;4944;52.514;13.192;2022-12-08T11:08:47;3.30;99.90
9810;DHT22;4944;52.514;13.192;2022-12-08T11:11:14;3.20;99.90
9810;DHT22;4944;52.514;13.192;2022-12-08T11:13:41;3.10;99.90
9810;DHT22;4944;52.514;13.192;2022-12-08T11:16:11;2.90;99.90
9810;DHT22;4944;52.514;13.192;2022-12-08T11:18:41;2.90;99.90
9810;DHT22;4944;52.514;13.192;2022-12-08T11:21:10;2.80;99.90
9810;DHT22;4944;52.514;13.192;2022-12-08T11:23:41;2.80;99.90
9810;DHT22;4944;52.514;13.192;2022-12-08T11:26:19;2.80;99.90
9810;DHT22;4944;52.514;13.192;2022-12-08T11:28:49;2.80;99.90
9810;DHT22;4944;52.514;13.192;2022-12-08T11:31:24;2.80;99.90
9810;DHT22;4944;52.514;13.192;2022-12-08T11:33:53;2.80;99.90
9810;DHT22;4944;52.514;13.192;2022-12-08T11:36:22;2.80;99.90
9810;DHT22;4944;52.514;13.192;2022-12-08T11:38:55;2.80;99.90
9810;DHT22;4944;52.514;13.192;2022-12-08T11:41:26;2.80;99.90
9810;DHT22;4944;52.514;13.192;2022-12-08T11:44:00;2.80;99.90
9810;DHT22;4944;52.514;13.192;2022-12-08T11:46:32;2.90;99.90
9810;DHT22;4944;52.514;13.192;2022-12-08T11:49:01;2.90;99.90
9810;DHT22;4944;52.514;13.192;2022-12-08T11:51:31;2.90;99.90
9810;DHT22;4944;52.514;13.192;2022-12-08T11:54:12;2.90;99.90
9810;DHT22;4944;52.514;13.192;2022-12-08T11:56:44;2.90;99.90
9810;DHT22;4944;52.514;13.192;2022-12-08T11:59:18;2.90;99.90
9810;DHT22;4944;52.514;13.192;2022-12-08T12:01:48;3.00;99.90
9810;DHT22;4944;52.514;13.192;2022-12-08T12:04:20;3.00;99.90
9810;DHT22;4944;52.514;13.192;2022-12-08T12:07:11;3.00;99.90
9810;DHT22;4944;52.514;13.192;2022-12-08T12:09:55;3.00;99.90
9810;DHT22;4944;52.514;13.192;2022-12-08T12:12:34;3.10;99.90
9810;DHT22;4944;52.514;13.192;2022-12-08T12:18:24;3.10;99.90
9810;DHT22;4944;52.514;13.192;2022-12-08T12:20:54;3.10;99.90
9810;DHT22;4944;52.514;13.192;2022-12-08T12:23:25;3.10;99.90
9810;DHT22;4944;52.514;13.192;2022-12-08T12:25:59;3.20;99.90
9810;DHT22;4944;52.514;13.192;2022-12-08T12:28:29;3.10;99.90
9810;DHT22;4944;52.514;13.192;2022-12-08T12:31:02;3.10;99.90
9810;DHT22;4944;52.514;13.192;2022-12-08T12:33:31;3.20;99.90
9810;DHT22;4944;52.514;13.192;2022-12-08T12:36:02;3.20;99.90
9810;DHT22;4944;52.514;13.192;2022-12-08T12:38:33;3.20;99.90
9810;DHT22;4944;52.514;13.192;2022-12-08T12:41:23;3.20;99.90
9810;DHT22;4944;52.514;13.192;2022-12-08T12:44:22;3.20;99.90
9810;DHT22;4944;52.514;13.192;2022-12-08T12:46:57;3.20;99.90
9810;DHT22;4944;52.514;13.192;2022-12-08T12:50:03;3.20;99.90
9810;DHT22;4944;52.514;13.192;2022-12-08T12:52:42;3.20;99.90
9810;DHT22;4944;52.514;13.192;2022-12-08T12:58:37;3.20;99.90
9810;DHT22;4944;52.514;13.192;2022-12-08T13:01:45;3.10;99.90
9810;DHT22;4944;52.514;13.192;2022-12-08T13:04:14;3.10;99.90
9810;DHT22;4944;52.514;13.192;2022-12-08T13:06:44;3.10;99.90
9810;DHT22;4944;52.514;13.192;2022-12-08T13:09:26;3.10;99.90
9810;DHT22;4944;52.514;13.192;2022-12-08T13:11:56;3.10;99.90
9810;DHT22;4944;52.514;13.192;2022-12-08T13:14:31;3.10;99.90
9810;DHT22;4944;52.514;13.192;2022-12-08T13:17:00;3.00;99.90
9810;DHT22;4944;52.514;13.192;2022-12-08T13:19:30;3.00;99.90
9810;DHT22;4944;52.514;13.192;2022-12-08T13:21:59;3.00;99.90
9810;DHT22;4944;52.514;13.192;2022-12-08T13:24:30;3.00;99.90
9810;DHT22;4944;52.514;13.192;2022-12-08T13:27:31;3.00;99.90
9810;DHT22;4944;52.514;13.192;2022-12-08T13:30:40;3.00;99.90
9810;DHT22;4944;52.514;13.192;2022-12-08T13:33:11;3.00;99.90
9810;DHT22;4944;52.514;13.192;2022-12-08T13:35:45;3.00;99.90
9810;DHT22;4944;52.514;13.192;2022-12-08T13:38:16;3.00;99.90
9810;DHT22;4944;52.514;13.192;2022-12-08T13:40:45;3.00;99.90
9810;DHT22;4944;52.514;13.192;2022-12-08T13:43:17;3.00;99.90
9810;DHT22;4944;52.514;13.192;2022-12-08T13:45:47;3.00;99.90
9810;DHT22;4944;52.514;13.192;2022-12-08T13:48:19;3.00;99.90
9810;DHT22;4944;52.514;13.192;2022-12-08T13:50:53;3.00;99.90
9810;DHT22;4944;52.514;13.192;2022-12-08T13:53:24;3.00;99.90
9810;DHT22;4944;52.514;13.192;2022-12-08T13:55:55;3.00;99.90
9810;DHT22;4944;52.514;13.192;2022-12-08T13:58:25;3.10;99.90
9810;DHT22;4944;52.514;13.192;2022-12-08T14:01:02;3.10;99.90
9810;DHT22;4944;52.514;13.192;2022-12-08T14:03:33;3.10;99.90
9810;DHT22;4944;52.514;13.192;2022-12-08T14:06:04;3.10;99.90
9810;DHT22;4944;52.514;13.192;2022-12-08T14:08:33;3.10;99.90
9810;DHT22;4944;52.514;13.192;2022-12-08T14:11:02;3.10;99.90
9810;DHT22;4944;52.514;13.192;2022-12-08T14:13:30;3.10;99.90
9810;DHT22;4944;52.514;13.192;2022-12-08T14:16:00;3.00;99.90
9810;DHT22;4944;52.514;13.192;2022-12-08T14:18:28;3.10;99.90
9810;DHT22;4944;52.514;13.192;2022-12-08T14:21:01;3.10;99.90
9810;DHT22;4944;52.514;13.192;2022-12-08T14:23:28;3.00;99.90
9810;DHT22;4944;52.514;13.192;2022-12-08T14:25:55;3.10;99.90
9810;DHT22;4944;52.514;13.192;2022-12-08T14:28:23;3.00;99.90
9810;DHT22;4944;52.514;13.192;2022-12-08T14:30:51;3.10;99.90
9810;DHT22;4944;52.514;13.192;2022-12-08T14:33:19;3.00;99.90
9810;DHT22;4944;52.514;13.192;2022-12-08T14:35:50;3.00;99.90
9810;DHT22;4944;52.514;13.192;2022-12-08T14:38:19;3.00;99.90
9810;DHT22;4944;52.514;13.192;2022-12-08T14:40:47;3.00;99.90
9810;DHT22;4944;52.514;13.192;2022-12-08T14:43:16;3.00;99.90
9810;DHT22;4944;52.514;13.192;2022-12-08T14:45:50;3.00;99.90
9810;DHT22;4944;52.514;13.192;2022-12-08T14:48:23;3.00;99.90
9810;DHT22;4944;52.514;13.192;2022-12-08T14:51:00;3.00;99.90
9810;DHT22;4944;52.514;13.192;2022-12-08T14:53:36;3.00;99.90
9810;DHT22;4944;52.514;13.192;2022-12-08T14:56:12;3.00;99.90
9810;DHT22;4944;52.514;13.192;2022-12-08T14:58:40;3.00;99.90
9810;DHT22;4944;52.514;13.192;2022-12-08T15:01:11;3.00;99.90
9810;DHT22;4944;52.514;13.192;2022-12-08T15:03:40;3.00;99.90
9810;DHT22;4944;52.514;13.192;2022-12-08T15:06:07;3.10;99.90
9810;DHT22;4944;52.514;13.192;2022-12-08T15:08:50;3.10;99.90
9810;DHT22;4944;52.514;13.192;2022-12-08T15:11:28;3.10;99.90
9810;DHT22;4944;52.514;13.192;2022-12-08T15:13:56;3.10;99.90
9810;DHT22;4944;52.514;13.192;2022-12-08T15:16:26;3.10;99.90
9810;DHT22;4944;52.514;13.192;2022-12-08T15:21:49;3.10;99.90
9810;DHT22;4944;52.514;13.192;2022-12-08T15:24:24;3.10;99.90
9810;DHT22;4944;52.514;13.192;2022-12-08T15:26:51;3.10;99.90
9810;DHT22;4944;52.514;13.192;2022-12-08T15:29:22;3.00;99.90
9810;DHT22;4944;52.514;13.192;2022-12-08T15:31:50;3.00;99.90
9810;DHT22;4944;52.514;13.192;2022-12-08T15:34:19;3.00;99.90
9810;DHT22;4944;52.514;13.192;2022-12-08T15:36:46;2.90;99.90
9810;DHT22;4944;52.514;13.192;2022-12-08T15:39:30;2.90;99.90
9810;DHT22;4944;52.514;13.192;2022-12-08T15:41:57;2.80;99.90
9810;DHT22;4944;52.514;13.192;2022-12-08T15:44:25;2.90;99.90
9810;DHT22;4944;52.514;13.192;2022-12-08T15:46:52;2.90;99.90
9810;DHT22;4944;52.514;13.192;2022-12-08T15:49:22;2.80;99.90
9810;DHT22;4944;52.514;13.192;2022-12-08T15:51:50;2.90;99.90
9810;DHT22;4944;52.514;13.192;2022-12-08T15:54:17;2.90;99.90
9810;DHT22;4944;52.514;13.192;2022-12-08T15:56:46;2.90;99.90
9810;DHT22;4944;52.514;13.192;2022-12-08T15:59:17;2.90;99.90
9810;DHT22;4944;52.514;13.192;2022-12-08T16:01:44;2.80;99.90
9810;DHT22;4944;52.514;13.192;2022-12-08T16:04:14;2.90;99.90
9810;DHT22;4944;52.514;13.192;2022-12-08T16:06:44;2.80;99.90
9810;DHT22;4944;52.514;13.192;2022-12-08T16:09:16;2.80;99.90
9810;DHT22;4944;52.514;13.192;2022-12-08T16:11:44;2.80;99.90
9810;DHT22;4944;52.514;13.192;2022-12-08T16:14:29;2.80;99.90
9810;DHT22;4944;52.514;13.192;2022-12-08T16:16:56;2.80;99.90
9810;DHT22;4944;52.514;13.192;2022-12-08T16:19:24;2.70;99.90
9810;DHT22;4944;52.514;13.192;2022-12-08T16:21:52;2.70;99.90
9810;DHT22;4944;52.514;13.192;2022-12-08T16:24:19;2.70;99.90
9810;DHT22;4944;52.514;13.192;2022-12-08T16:26:46;2.70;99.90
9810;DHT22;4944;52.514;13.192;2022-12-08T16:29:18;2.70;99.90
9810;DHT22;4944;52.514;13.192;2022-12-08T16:31:45;2.60;99.90
9810;DHT22;4944;52.514;13.192;2022-12-08T16:34:13;2.60;99.90